Arroyo Seco, NM (87514)

5:15 PM MST on February 14, 2016 (GMT -0700)
APRSWXNET | | Change Station
CLOSE
Current Station
Personal Weather Station
Location: Arroyo Seco, NM
Elevation: 7280 ft
Nearby Weather Stations

Elev 7280 ft 36.48 °N, 105.61 °W | Updated 24 minutes ago

Partly Cloudy
Partly Cloudy
46 °F
Feels Like 43 °F
N
6
Wind Variable Wind from SW
Gusts 13.0 mph

Today
High -- | Low -- °F
--% Chance of Precip.
Yesterday
High -- | Low -- °F
Precip. -- in
Pressure 29.98 in
Visibility 10.0 miles
Clouds Mostly Cloudy 10000 ft
Windchill 43 °F
Dew Point 16 °F
Humidity 30%
Rainfall in
Snow Depth Not available.
6:51 AM 5:41 PM
Waxing Crescent, 47% visible
METAR KSKX 142355Z AUTO 27010KT 10SM BKN100 09/M09 A2998 RMK AO1 10110 20070 401201050 57007
Pressure 29.98 in
Visibility 10.0 miles
Clouds Mostly Cloudy 10000 ft
Windchill 43 °F
Dew Point 16 °F
Humidity 30%
Rainfall in
Snow Depth Not available.
6:51 AM 5:41 PM
Waxing Crescent, 47% visible
METAR KSKX 142355Z AUTO 27010KT 10SM BKN100 09/M09 A2998 RMK AO1 10110 20070 401201050 57007

10-Day Weather Forecast

Almanac

Astronomy

Feb. 14, 2016 Rise Set
Actual Time
Civil Twilight
Nautical Twilight
Astronomical Twilight
Moon
Length of Visible Light
Length of Day
Tomorrow will be .
, % of the Moon is Illuminated

Today's Extremes

State Highs State Lows

Community

WunderPhotos

Upload Photos

1,892,938 photos uploaded!

WunderBlog® & News

Nearby

Air Quality

  Air Quality AQ Index Pollutant
Not available.

Snow Depth

Station Depth Elevation

Earthquake Activity

City Distance Mag. Time & Date
Minimum magnitude displayed is 2.5.

Coastal Water Temperatures

Place Temperature

Stations

Nearby Weather Stations

Station Location Temp. Windchill Dew Point Humidity Wind Precip. Elev Updated Type
                   

Watches & Warnings

There are currently no watches in effect.